Time;durP1;ratioP1;P1;durP2;ratioP2;P2;SDS_P1;SDS_P2;PMS_P1;PMS_P2;Temp;Humidity;BMP_temperature;BMP_pressure;BME280_temperature;BME280_humidity;BME280_pressure;Samples;Min_cycle;Max_cycle;Signal;HPM_P1;HPM_P2
2023/11/11 00:02:37;;;;;;;30.63;9.18;;;;;;;;;;6171004;23;20021;-62
2023/11/11 00:05:05;;;;;;;19.27;8.10;;;;;;;;;;6171973;23;20061;-63
2023/11/11 00:07:32;;;;;;;;;;;;;;;;;;6173310;23;20018;-62
2023/11/11 00:10:33;;;;;;;21.67;8.10;;;;;;;;;;6173003;23;19926;-60
2023/11/11 00:13:27;;;;;;;25.58;9.38;;;;;;;;;;6166220;23;20029;-48
2023/11/11 00:16:20;;;;;;;19.02;7.65;;;;;;;;;;6173267;23;20029;-54
2023/11/11 00:18:48;;;;;;;22.55;8.23;;;;;;;;;;6173776;23;20025;-53
2023/11/11 00:21:15;;;;;;;39.17;9.88;;;;;;;;;;6173222;23;20025;-53
2023/11/11 00:23:49;;;;;;;29.35;9.68;;;;;;;;;;6150681;23;20028;-51
2023/11/11 00:26:16;;;;;;;23.05;8.93;;;;;;;;;;6173795;23;20025;-54
2023/11/11 00:29:10;;;;;;;27.00;9.00;;;;;;;;;;6174912;23;20095;-59
2023/11/11 00:31:58;;;;;;;23.27;8.82;;;;;;;;;;6164224;23;20084;-52
2023/11/11 00:34:53;;;;;;;37.75;9.68;;;;;;;;;;6173768;23;20056;-51
2023/11/11 00:37:38;;;;;;;33.08;9.65;;;;;;;;;;6173642;23;20486;-54
2023/11/11 00:40:32;;;;;;;24.92;8.82;;;;;;;;;;6176676;23;20017;-52
2023/11/11 00:43:19;;;;;;;28.65;9.68;;;;;;;;;;6174058;23;20025;-54
2023/11/11 00:46:13;;;;;;;24.10;9.27;;;;;;;;;;6175644;23;20131;-55
2023/11/11 00:49:08;;;;;;;33.35;10.70;;;;;;;;;;6174618;23;20029;-61
2023/11/11 00:51:55;;;;;;;34.43;10.37;;;;;;;;;;6174260;23;20025;-62
2023/11/11 00:54:49;;;;;;;31.85;9.93;;;;;;;;;;6174410;23;20028;-61
2023/11/11 00:57:38;;;;;;;43.58;11.57;;;;;;;;;;6172669;23;20027;-62
2023/11/11 01:00:13;;;;;;;37.28;10.77;;;;;;;;;;6173345;23;20688;-61
2023/11/11 01:03:00;;;;;;;31.27;10.05;;;;;;;;;;6174459;23;20479;-61
2023/11/11 01:05:54;;;;;;;31.13;10.57;;;;;;;;;;6173665;23;20029;-53
2023/11/11 01:08:28;;;;;;;31.10;9.45;;;;;;;;;;6174537;23;20025;-62
2023/11/11 01:11:02;;;;;;;29.15;10.82;;;;;;;;;;6175074;23;20025;-61
2023/11/11 01:13:56;;;;;;;25.55;9.35;;;;;;;;;;6168463;23;20020;-62
2023/11/11 01:16:50;;;;;;;22.48;9.73;;;;;;;;;;6174942;23;20751;-62
2023/11/11 01:19:37;;;;;;;39.72;9.90;;;;;;;;;;6173425;23;20079;-62
2023/11/11 01:22:31;;;;;;;35.85;11.07;;;;;;;;;;6172119;23;20021;-62
2023/11/11 01:25:20;;;;;;;29.00;9.60;;;;;;;;;;6174934;23;20021;-59
2023/11/11 01:27:54;;;;;;;35.83;9.90;;;;;;;;;;6173015;23;20025;-52
2023/11/11 01:30:28;;;;;;;23.58;9.02;;;;;;;;;;6175514;23;20083;-56
2023/11/11 01:33:15;;;;;;;28.50;9.80;;;;;;;;;;6174307;23;20021;-54
2023/11/11 01:36:09;;;;;;;56.72;11.23;;;;;;;;;;6176279;23;20021;-53
2023/11/11 01:38:56;;;;;;;25.45;9.02;;;;;;;;;;6173728;23;20032;-54
2023/11/11 01:41:50;;;;;;;19.50;7.95;;;;;;;;;;6174290;23;20029;-60
2023/11/11 01:44:37;;;;;;;38.50;9.48;;;;;;;;;;6173141;23;20025;-62
2023/11/11 01:47:31;;;;;;;31.00;9.23;;;;;;;;;;6175708;23;20017;-63
2023/11/11 01:50:18;;;;;;;31.48;9.25;;;;;;;;;;6175603;23;20522;-62
2023/11/11 01:53:12;;;;;;;35.63;9.85;;;;;;;;;;6173265;23;20410;-62
2023/11/11 01:56:08;;;;;;;34.00;10.15;;;;;;;;;;6173750;23;20075;-62
2023/11/11 01:58:53;;;;;;;25.63;9.63;;;;;;;;;;6160989;23;20409;-62
2023/11/11 02:01:49;;;;;;;25.70;9.32;;;;;;;;;;6172212;23;20028;-55
2023/11/11 02:04:34;;;;;;;24.13;8.15;;;;;;;;;;6172517;23;20404;-54
2023/11/11 02:07:28;;;;;;;42.13;10.10;;;;;;;;;;6175914;23;20017;-54
2023/11/11 02:10:22;;;;;;;42.70;10.82;;;;;;;;;;6169657;23;20028;-55
2023/11/11 02:13:15;;;;;;;24.88;8.90;;;;;;;;;;6173963;23;20321;-50
2023/11/11 02:16:04;;;;;;;29.27;9.40;;;;;;;;;;6174246;23;20021;-53
2023/11/11 02:18:59;;;;;;;30.83;9.18;;;;;;;;;;6173244;23;20536;-62
2023/11/11 02:21:47;;;;;;;50.90;11.02;;;;;;;;;;6173355;23;20025;-53
2023/11/11 02:24:21;;;;;;;53.45;12.30;;;;;;;;;;6173031;23;20056;-54
2023/11/11 02:26:49;;;;;;;33.28;9.98;;;;;;;;;;6160996;23;20025;-54
2023/11/11 02:29:23;;;;;;;37.00;11.27;;;;;;;;;;6168176;23;20467;-54
2023/11/11 02:32:10;;;;;;;44.88;12.30;;;;;;;;;;6175693;23;20025;-53
2023/11/11 02:35:05;;;;;;;36.33;10.90;;;;;;;;;;6174621;23;20056;-54
2023/11/11 02:37:52;;;;;;;31.60;10.35;;;;;;;;;;6172779;23;20765;-62
2023/11/11 02:40:46;;;;;;;34.70;10.30;;;;;;;;;;6173544;23;20087;-55
2023/11/11 02:43:33;;;;;;;37.15;9.65;;;;;;;;;;6172132;23;20025;-53
2023/11/11 02:46:07;;;;;;;48.75;11.27;;;;;;;;;;6174202;23;20017;-51
2023/11/11 02:49:01;;;;;;;38.55;10.18;;;;;;;;;;6172231;23;20032;-49
2023/11/11 02:51:29;;;;;;;32.05;11.13;;;;;;;;;;6174867;23;20021;-51
2023/11/11 02:53:57;;;;;;;31.10;9.75;;;;;;;;;;6171931;23;20104;-55
2023/11/11 02:56:31;;;;;;;25.45;9.32;;;;;;;;;;6173672;23;20531;-59
2023/11/11 02:59:18;;;;;;;31.63;10.43;;;;;;;;;;6174728;23;20637;-53
2023/11/11 03:02:13;;;;;;;51.70;10.80;;;;;;;;;;6174489;23;20087;-53
2023/11/11 03:04:59;;;;;;;38.03;10.77;;;;;;;;;;6167823;23;20092;-58
2023/11/11 03:07:53;;;;;;;32.15;9.15;;;;;;;;;;6172607;23;20037;-48
2023/11/11 03:10:47;;;;;;;35.25;10.02;;;;;;;;;;6173365;23;20087;-52
2023/11/11 03:13:41;;;;;;;32.03;9.32;;;;;;;;;;6174435;23;20634;-63
2023/11/11 03:16:38;;;;;;;24.00;9.32;;;;;;;;;;6173047;23;20021;-62
2023/11/11 03:19:32;;;;;;;35.90;10.23;;;;;;;;;;6173395;23;20032;-62
2023/11/11 03:22:26;;;;;;;30.90;9.20;;;;;;;;;;6173860;23;20755;-62
2023/11/11 03:25:20;;;;;;;32.55;9.93;;;;;;;;;;6171326;23;20080;-61
2023/11/11 03:28:14;;;;;;;27.35;8.82;;;;;;;;;;6173503;23;20029;-62
2023/11/11 03:31:02;;;;;;;38.15;9.05;;;;;;;;;;6173678;23;20037;-62
2023/11/11 03:33:57;;;;;;;32.40;9.98;;;;;;;;;;6171641;23;20413;-62
2023/11/11 03:36:43;;;;;;;38.13;9.30;;;;;;;;;;6170818;23;20032;-60
2023/11/11 03:39:39;;;;;;;41.55;9.60;;;;;;;;;;6173102;23;20021;-60
2023/11/11 03:42:24;;;;;;;47.00;9.93;;;;;;;;;;6172753;23;20025;-59
2023/11/11 03:45:18;;;;;;;21.83;8.23;;;;;;;;;;6174006;23;20029;-60
2023/11/11 03:48:05;;;;;;;49.10;9.48;;;;;;;;;;6172900;23;20035;-60
2023/11/11 03:50:39;;;;;;;28.17;7.47;;;;;;;;;;6173433;23;20483;-60
2023/11/11 03:53:26;;;;;;;21.30;8.40;;;;;;;;;;6173181;23;20021;-55
2023/11/11 03:56:20;;;;;;;29.95;9.38;;;;;;;;;;6174053;23;20080;-50
2023/11/11 03:59:07;;;;;;;31.77;8.85;;;;;;;;;;6175833;23;20025;-53
2023/11/11 04:02:01;;;;;;;45.33;9.55;;;;;;;;;;6173292;23;20108;-47
2023/11/11 04:04:48;;;;;;;24.20;8.30;;;;;;;;;;6173327;23;20033;-52
2023/11/11 04:07:22;;;;;;;25.58;7.65;;;;;;;;;;6176324;23;20102;-50
2023/11/11 04:10:17;;;;;;;37.05;8.90;;;;;;;;;;6171312;23;20028;-59
2023/11/11 04:13:09;;;;;;;37.75;8.20;;;;;;;;;;6173095;23;20036;-64
2023/11/11 04:15:56;;;;;;;31.85;8.52;;;;;;;;;;6174597;23;20025;-63
2023/11/11 04:18:50;;;;;;;34.17;7.15;;;;;;;;;;6172122;23;20025;-63
2023/11/11 04:21:37;;;;;;;32.28;8.35;;;;;;;;;;6173670;23;20025;-64
2023/11/11 04:24:31;;;;;;;17.30;7.00;;;;;;;;;;6172443;23;20025;-64
2023/11/11 04:27:18;;;;;;;36.70;7.70;;;;;;;;;;6174840;23;20336;-59
2023/11/11 04:30:26;;;;;;;56.15;8.82;;;;;;;;;;6175197;23;20423;-51
2023/11/11 04:33:20;;;;;;;87.25;9.30;;;;;;;;;;6174723;23;20027;-54
2023/11/11 04:36:14;;;;;;;55.42;9.52;;;;;;;;;;6174878;23;20028;-54
2023/11/11 04:39:00;;;;;;;46.90;9.23;;;;;;;;;;6174706;23;21025;-52
2023/11/11 04:41:34;;;;;;;40.85;8.23;;;;;;;;;;6174259;23;20025;-51
2023/11/11 04:44:21;;;;;;;55.75;9.85;;;;;;;;;;6174966;23;20061;-51
2023/11/11 04:47:15;;;;;;;62.80;11.27;;;;;;;;;;6174725;23;20029;-58
2023/11/11 04:50:02;;;;;;;120.65;14.18;;;;;;;;;;6175014;23;20487;-52
2023/11/11 04:52:56;;;;;;;105.60;11.38;;;;;;;;;;6174701;23;20095;-54
2023/11/11 04:55:50;;;;;;;105.30;11.43;;;;;;;;;;6175224;23;20084;-48
2023/11/11 04:58:44;;;;;;;62.45;10.00;;;;;;;;;;6174855;23;20075;-52
2023/11/11 05:01:39;;;;;;;23.92;8.40;;;;;;;;;;6174774;23;20083;-55
2023/11/11 05:04:25;;;;;;;84.95;9.25;;;;;;;;;;6175002;23;20025;-61
2023/11/11 05:07:22;;;;;;;73.63;11.00;;;;;;;;;;6175547;23;20025;-60
2023/11/11 05:10:13;;;;;;;48.47;9.50;;;;;;;;;;6173836;23;20028;-60
2023/11/11 05:13:08;;;;;;;49.22;10.40;;;;;;;;;;6176215;23;20091;-60
2023/11/11 05:16:03;;;;;;;76.90;12.05;;;;;;;;;;6173922;23;20080;-60
2023/11/11 05:18:48;;;;;;;74.35;11.27;;;;;;;;;;6168231;23;20017;-60
2023/11/11 05:21:36;;;;;;;52.25;8.93;;;;;;;;;;6175101;23;20025;-60
2023/11/11 05:24:10;;;;;;;51.90;10.13;;;;;;;;;;6173722;23;20083;-55
2023/11/11 05:26:57;;;;;;;69.47;10.30;;;;;;;;;;6170067;23;20108;-63
2023/11/11 05:29:51;;;;;;;47.75;8.85;;;;;;;;;;6173482;23;20068;-63
2023/11/11 05:32:18;;;;;;;63.70;9.38;;;;;;;;;;6147951;23;20029;-63
2023/11/11 05:35:12;;;;;;;49.88;7.43;;;;;;;;;;6171831;23;20021;-63
2023/11/11 05:37:42;;;;;;;49.35;8.77;;;;;;;;;;6173759;23;20025;-63
2023/11/11 05:40:34;;;;;;;50.90;8.35;;;;;;;;;;6174037;23;20024;-65
2023/11/11 05:43:21;;;;;;;50.05;7.97;;;;;;;;;;6175610;23;20029;-63
2023/11/11 05:46:15;;;;;;;86.80;9.23;;;;;;;;;;6170135;23;20028;-63
2023/11/11 05:49:03;;;;;;;92.07;9.50;;;;;;;;;;6172975;23;20025;-62
2023/11/11 05:51:56;;;;;;;96.82;10.00;;;;;;;;;;6175708;23;20021;-62
2023/11/11 05:54:44;;;;;;;34.78;7.03;;;;;;;;;;6170786;23;20025;-63
2023/11/11 05:57:38;;;;;;;60.83;7.43;;;;;;;;;;6174005;23;20752;-63
2023/11/11 06:00:24;;;;;;;69.97;8.27;;;;;;;;;;6174086;23;20036;-60
2023/11/11 06:03:18;;;;;;;127.88;10.18;;;;;;;;;;6171403;23;20027;-55
2023/11/11 06:05:46;;;;;;;;;;;;;;;;;;6175632;23;20021;-55
2023/11/11 06:08:13;;;;;;;100.65;8.98;;;;;;;;;;6173708;23;19920;-53
2023/11/11 06:10:54;;;;;;;177.73;13.15;;;;;;;;;;6172529;23;20029;-54
2023/11/11 06:13:21;;;;;;;50.88;6.40;;;;;;;;;;6174905;23;20036;-53
2023/11/11 06:16:15;;;;;;;40.88;7.53;;;;;;;;;;6172557;23;20025;-53
2023/11/11 06:19:02;;;;;;;73.45;8.60;;;;;;;;;;6172135;23;20534;-62
2023/11/11 06:21:53;;;;;;;70.38;8.75;;;;;;;;;;6172549;23;20029;-63
2023/11/11 06:24:40;;;;;;;37.97;6.95;;;;;;;;;;6173150;23;20096;-63
2023/11/11 06:27:34;;;;;;;66.32;8.38;;;;;;;;;;6170400;23;20017;-64
2023/11/11 06:30:21;;;;;;;52.58;7.80;;;;;;;;;;6173967;23;20029;-64
2023/11/11 06:33:15;;;;;;;48.35;8.70;;;;;;;;;;6173459;23;20104;-62
2023/11/11 06:36:10;;;;;;;67.38;9.02;;;;;;;;;;6175007;23;20025;-64
2023/11/11 06:39:11;;;;;;;50.70;8.25;;;;;;;;;;6172092;23;20040;-55
2023/11/11 06:41:57;;;;;;;34.95;7.28;;;;;;;;;;6172621;23;20104;-55
2023/11/11 06:44:51;;;;;;;60.63;7.93;;;;;;;;;;6171172;23;20028;-53
2023/11/11 06:47:38;;;;;;;32.38;6.78;;;;;;;;;;6170209;23;20029;-50
2023/11/11 06:50:32;;;;;;;41.17;6.60;;;;;;;;;;6173919;23;20399;-51
2023/11/11 06:53:26;;;;;;;19.23;6.10;;;;;;;;;;6173980;23;20083;-54
2023/11/11 06:56:16;;;;;;;48.83;7.60;;;;;;;;;;6173365;23;20459;-64
2023/11/11 06:59:11;;;;;;;47.90;6.35;;;;;;;;;;6170157;23;20028;-64
2023/11/11 07:01:39;;;;;;;;;;;;;;;;;;6173444;23;20467;-65
2023/11/11 07:04:32;;;;;;;52.55;6.30;;;;;;;;;;6168993;23;19928;-64
2023/11/11 07:07:23;;;;;;;70.07;7.38;;;;;;;;;;6173861;23;20348;-64
2023/11/11 07:10:23;;;;;;;69.05;8.40;;;;;;;;;;6171091;23;20069;-64
2023/11/11 07:13:20;;;;;;;76.50;7.50;;;;;;;;;;6173822;23;20021;-55
2023/11/11 07:16:14;;;;;;;46.45;7.00;;;;;;;;;;6173654;23;20029;-62
2023/11/11 07:19:03;;;;;;;47.83;6.95;;;;;;;;;;6172955;23;20071;-62
2023/11/11 07:21:56;;;;;;;81.85;7.03;;;;;;;;;;6172361;23;20104;-62
2023/11/11 07:24:47;;;;;;;62.25;6.95;;;;;;;;;;6171540;23;20079;-62
2023/11/11 07:27:21;;;;;;;49.03;6.32;;;;;;;;;;6169629;23;20021;-62
2023/11/11 07:30:12;;;;;;;66.88;7.13;;;;;;;;;;6171468;23;20021;-62
2023/11/11 07:33:05;;;;;;;65.25;7.57;;;;;;;;;;6173580;23;20875;-62
2023/11/11 07:35:59;;;;;;;76.38;7.22;;;;;;;;;;6173437;23;20036;-54
2023/11/11 07:38:53;;;;;;;97.00;8.13;;;;;;;;;;6176110;23;20028;-52
2023/11/11 07:41:40;;;;;;;67.47;5.90;;;;;;;;;;6177726;23;20127;-51
2023/11/11 07:44:34;;;;;;;74.40;6.85;;;;;;;;;;6177785;23;20025;-52
2023/11/11 07:47:22;;;;;;;36.85;5.95;;;;;;;;;;6175922;23;20180;-54
2023/11/11 07:50:19;;;;;;;45.95;6.13;;;;;;;;;;6175253;23;20032;-63
2023/11/11 07:53:04;;;;;;;49.65;7.30;;;;;;;;;;6173409;23;20025;-63
2023/11/11 07:55:58;;;;;;;30.45;5.80;;;;;;;;;;6174630;23;20033;-62
2023/11/11 07:58:47;;;;;;;26.48;4.97;;;;;;;;;;6176443;23;20355;-62
2023/11/11 08:01:38;;;;;;;41.88;6.20;;;;;;;;;;6174505;23;20021;-62
2023/11/11 08:04:05;;;;;;;40.85;5.63;;;;;;;;;;6177477;23;20363;-62
2023/11/11 08:06:32;;;;;;;;;;;;;;;;;;6175566;23;20056;-62
2023/11/11 08:09:26;;;;;;;113.97;7.13;;;;;;;;;;6172251;23;19920;-60
2023/11/11 08:12:20;;;;;;;54.00;6.70;;;;;;;;;;6137806;23;20028;-60
2023/11/11 08:15:13;;;;;;;105.50;7.72;;;;;;;;;;6140755;23;20050;-60
2023/11/11 08:18:00;;;;;;;149.30;11.00;;;;;;;;;;6145881;23;20081;-58
2023/11/11 08:21:09;;;;;;;73.63;7.57;;;;;;;;;;6147023;23;20033;-58
2023/11/11 08:23:56;;;;;;;48.63;6.68;;;;;;;;;;6143126;23;20033;-60
2023/11/11 08:26:30;;;;;;;40.83;5.65;;;;;;;;;;6145786;23;20021;-59
2023/11/11 08:29:24;;;;;;;43.40;5.85;;;;;;;;;;6142707;23;20367;-56
2023/11/11 08:32:11;;;;;;;77.25;6.38;;;;;;;;;;6143209;23;20021;-54
2023/11/11 08:35:05;;;;;;;54.10;5.60;;;;;;;;;;6140808;23;20025;-55
2023/11/11 08:37:52;;;;;;;20.90;4.88;;;;;;;;;;6145197;23;20037;-54
2023/11/11 08:40:46;;;;;;;64.38;6.18;;;;;;;;;;6145022;23;20017;-52
2023/11/11 08:43:33;;;;;;;35.53;5.80;;;;;;;;;;6141607;23;20115;-47
2023/11/11 08:46:27;;;;;;;77.20;7.05;;;;;;;;;;6146470;23;20022;-52
2023/11/11 08:49:14;;;;;;;104.65;8.45;;;;;;;;;;6143685;23;20087;-59
2023/11/11 08:52:08;;;;;;;38.55;5.60;;;;;;;;;;6143892;23;20025;-59
2023/11/11 08:54:35;;;;;;;91.40;7.00;;;;;;;;;;6146251;23;20294;-59
2023/11/11 08:57:03;;;;;;;41.50;6.82;;;;;;;;;;6145673;23;20036;-58
2023/11/11 08:59:37;;;;;;;55.65;6.63;;;;;;;;;;6146455;23;20037;-58
2023/11/11 09:02:04;;;;;;;76.95;7.50;;;;;;;;;;6120435;23;20033;-58
2023/11/11 09:04:58;;;;;;;120.60;8.25;;;;;;;;;;6144703;23;20367;-61
2023/11/11 09:07:45;;;;;;;119.18;8.85;;;;;;;;;;6138197;23;20017;-60
2023/11/11 09:10:46;;;;;;;37.88;5.22;;;;;;;;;;6156045;23;20499;-59
2023/11/11 09:13:22;;;;;;;66.80;7.35;;;;;;;;;;6174968;23;20456;-60
2023/11/11 09:16:14;;;;;;;38.05;7.70;;;;;;;;;;6174963;23;20079;-59
2023/11/11 09:19:03;;;;;;;70.18;8.07;;;;;;;;;;6174662;23;20099;-60
2023/11/11 09:21:55;;;;;;;83.30;9.57;;;;;;;;;;6173743;23;20415;-51
2023/11/11 09:24:42;;;;;;;38.90;6.60;;;;;;;;;;6176468;23;20029;-59
2023/11/11 09:27:36;;;;;;;30.35;6.75;;;;;;;;;;6175637;23;20032;-60
2023/11/11 09:30:24;;;;;;;27.77;5.95;;;;;;;;;;6174991;23;20111;-59
2023/11/11 09:33:17;;;;;;;15.05;4.75;;;;;;;;;;6172609;23;20021;-59
2023/11/11 09:36:05;;;;;;;27.30;5.47;;;;;;;;;;6173773;23;20021;-60
2023/11/11 09:38:58;;;;;;;20.65;4.95;;;;;;;;;;6172572;23;20024;-60
2023/11/11 09:41:45;;;;;;;9.85;4.30;;;;;;;;;;6175397;23;20017;-54
2023/11/11 09:44:39;;;;;;;15.00;4.75;;;;;;;;;;6170410;23;20039;-55
2023/11/11 09:47:13;;;;;;;32.00;5.05;;;;;;;;;;6178681;23;20029;-55
2023/11/11 09:50:07;;;;;;;10.10;4.50;;;;;;;;;;6173953;23;20057;-62
2023/11/11 09:53:02;;;;;;;10.13;4.40;;;;;;;;;;6174827;23;20028;-61
2023/11/11 09:55:48;;;;;;;23.27;4.70;;;;;;;;;;6171281;23;20079;-61
2023/11/11 09:58:45;;;;;;;15.77;4.85;;;;;;;;;;6176807;23;20545;-61
2023/11/11 10:01:12;;;;;;;;;;;;;;;;;;6175554;23;20028;-61
2023/11/11 10:03:46;;;;;;;12.95;4.15;;;;;;;;;;6174233;23;19923;-60
2023/11/11 10:06:41;;;;;;;9.40;3.67;;;;;;;;;;6174438;23;20390;-61
2023/11/11 10:09:28;;;;;;;7.13;3.83;;;;;;;;;;6170796;23;20017;-63
2023/11/11 10:12:28;;;;;;;14.63;3.83;;;;;;;;;;6172301;23;20029;-60
2023/11/11 10:15:15;;;;;;;11.25;3.65;;;;;;;;;;6170582;23;20032;-61
2023/11/11 10:18:10;;;;;;;12.57;3.60;;;;;;;;;;6174448;23;20024;-61
2023/11/11 10:20:57;;;;;;;16.45;4.30;;;;;;;;;;6168777;23;20079;-60
2023/11/11 10:23:50;;;;;;;32.78;4.53;;;;;;;;;;6167632;23;20407;-60
2023/11/11 10:26:40;;;;;;;18.42;3.70;;;;;;;;;;6172377;23;20540;-64
2023/11/11 10:29:35;;;;;;;18.52;3.75;;;;;;;;;;6172904;23;20471;-54
2023/11/11 10:32:22;;;;;;;9.45;2.97;;;;;;;;;;6176260;23;20064;-55
2023/11/11 10:35:17;;;;;;;30.27;4.30;;;;;;;;;;6175819;23;20044;-54
2023/11/11 10:38:04;;;;;;;19.20;4.10;;;;;;;;;;6173391;23;20028;-54
2023/11/11 10:40:58;;;;;;;28.27;4.22;;;;;;;;;;6174783;23;20025;-54
2023/11/11 10:43:45;;;;;;;13.20;3.85;;;;;;;;;;6175205;23;20021;-56
2023/11/11 10:46:19;;;;;;;50.05;4.70;;;;;;;;;;6174168;23;20025;-57
2023/11/11 10:49:10;;;;;;;30.00;4.43;;;;;;;;;;6175243;23;20096;-51
2023/11/11 10:52:06;;;;;;;13.18;3.72;;;;;;;;;;6174259;23;20108;-51
2023/11/11 10:54:56;;;;;;;32.45;3.80;;;;;;;;;;6173415;23;20104;-54
2023/11/11 10:57:47;;;;;;;31.25;4.63;;;;;;;;;;6171133;23;20100;-53
2023/11/11 11:00:36;;;;;;;16.65;3.75;;;;;;;;;;6173282;23;20104;-52
2023/11/11 11:03:29;;;;;;;32.80;4.13;;;;;;;;;;6173666;23;20470;-61
2023/11/11 11:06:36;;;;;;;35.65;3.88;;;;;;;;;;6171805;23;20071;-55
2023/11/11 11:09:50;;;;;;;16.58;3.40;;;;;;;;;;6172405;23;20025;-54
2023/11/11 11:12:46;;;;;;;11.23;3.70;;;;;;;;;;6171030;23;20111;-54
2023/11/11 11:15:40;;;;;;;16.30;3.60;;;;;;;;;;6172061;23;20021;-53
2023/11/11 11:18:27;;;;;;;48.28;4.80;;;;;;;;;;6173704;23;20083;-50
2023/11/11 11:21:22;;;;;;;17.98;3.42;;;;;;;;;;6172640;23;20028;-54
2023/11/11 11:24:09;;;;;;;13.57;3.80;;;;;;;;;;6173262;23;20028;-64
2023/11/11 11:27:02;;;;;;;15.85;4.03;;;;;;;;;;6172488;23;20064;-64
2023/11/11 11:29:49;;;;;;;33.58;4.97;;;;;;;;;;6173041;23;20024;-64
2023/11/11 11:32:47;;;;;;;20.48;4.45;;;;;;;;;;6173424;23;20036;-64
2023/11/11 11:35:35;;;;;;;27.25;5.38;;;;;;;;;;6171236;23;20080;-64
2023/11/11 11:38:36;;;;;;;27.45;4.15;;;;;;;;;;6171222;23;20032;-64
2023/11/11 11:41:03;;;;;;;19.25;4.40;;;;;;;;;;6174286;23;20087;-62
2023/11/11 11:43:39;;;;;;;15.30;3.90;;;;;;;;;;6171718;23;20025;-54
2023/11/11 11:46:06;;;;;;;8.18;3.83;;;;;;;;;;6172347;23;20467;-55
2023/11/11 11:49:00;;;;;;;50.97;5.97;;;;;;;;;;6171714;23;20862;-53
2023/11/11 11:51:53;;;;;;;14.00;4.20;;;;;;;;;;6172950;23;20025;-53
2023/11/11 11:54:46;;;;;;;9.48;3.90;;;;;;;;;;6166328;23;20025;-50
2023/11/11 11:57:33;;;;;;;10.45;3.92;;;;;;;;;;6171868;23;20414;-54
2023/11/11 12:00:27;;;;;;;7.07;3.97;;;;;;;;;;6172385;23;20024;-63
2023/11/11 12:03:14;;;;;;;10.65;4.00;;;;;;;;;;6169598;23;20414;-59
2023/11/11 12:06:11;;;;;;;6.30;3.92;;;;;;;;;;6170857;23;20021;-60
2023/11/11 12:08:59;;;;;;;6.57;3.47;;;;;;;;;;6171935;23;20557;-60
2023/11/11 12:11:59;;;;;;;7.38;3.60;;;;;;;;;;6170130;23;20447;-59
2023/11/11 12:14:50;;;;;;;5.18;3.15;;;;;;;;;;6169621;23;20021;-58
2023/11/11 12:17:47;;;;;;;7.45;4.07;;;;;;;;;;6173983;23;20021;-62
2023/11/11 12:20:39;;;;;;;8.13;3.70;;;;;;;;;;6173332;23;20052;-51
2023/11/11 12:23:32;;;;;;;7.10;3.80;;;;;;;;;;6166087;23;20035;-51
2023/11/11 12:26:21;;;;;;;8.98;3.85;;;;;;;;;;6174636;23;20021;-54
2023/11/11 12:29:13;;;;;;;5.40;3.50;;;;;;;;;;6175392;23;20025;-51
2023/11/11 12:32:01;;;;;;;5.82;3.80;;;;;;;;;;6174797;23;20029;-49
2023/11/11 12:34:54;;;;;;;8.98;3.95;;;;;;;;;;6172730;23;20021;-60
2023/11/11 12:37:43;;;;;;;9.32;3.97;;;;;;;;;;6175344;23;20055;-60
2023/11/11 12:40:35;;;;;;;9.27;4.03;;;;;;;;;;6174548;23;20028;-63
2023/11/11 12:43:24;;;;;;;6.70;3.95;;;;;;;;;;6173592;23;20333;-62
2023/11/11 12:46:17;;;;;;;8.55;3.83;;;;;;;;;;6172061;23;20107;-62
2023/11/11 12:49:12;;;;;;;7.47;4.60;;;;;;;;;;6173718;23;20021;-61
2023/11/11 12:52:13;;;;;;;8.63;4.72;;;;;;;;;;6171038;23;20056;-61
2023/11/11 12:54:41;;;;;;;6.25;4.13;;;;;;;;;;6172445;23;20025;-58
2023/11/11 12:57:28;;;;;;;6.13;4.10;;;;;;;;;;6173001;23;20033;-59
2023/11/11 13:00:15;;;;;;;11.15;5.30;;;;;;;;;;6171287;23;20104;-58
2023/11/11 13:03:09;;;;;;;9.55;4.53;;;;;;;;;;6172355;23;20099;-59
2023/11/11 13:06:06;;;;;;;12.02;5.72;;;;;;;;;;6175111;23;20064;-58
2023/11/11 13:08:59;;;;;;;11.68;6.10;;;;;;;;;;6174215;23;20020;-58
2023/11/11 13:11:40;;;;;;;15.20;5.93;;;;;;;;;;6140939;23;20495;-52
2023/11/11 13:14:11;;;;;;;14.05;6.95;;;;;;;;;;6145447;23;20017;-61
2023/11/11 13:16:44;;;;;;;13.65;6.82;;;;;;;;;;6145444;23;20522;-62
2023/11/11 13:19:34;;;;;;;11.38;6.32;;;;;;;;;;6146179;23;20021;-62
2023/11/11 13:22:28;;;;;;;13.88;7.82;;;;;;;;;;6143848;23;20519;-62
2023/11/11 13:25:15;;;;;;;15.02;6.75;;;;;;;;;;6143460;23;20475;-62
2023/11/11 13:28:09;;;;;;;16.48;6.43;;;;;;;;;;6145496;23;20018;-62
2023/11/11 13:30:56;;;;;;;18.73;7.07;;;;;;;;;;6142135;23;20026;-59
2023/11/11 13:33:50;;;;;;;12.75;6.63;;;;;;;;;;6144345;23;20026;-51
2023/11/11 13:36:44;;;;;;;13.05;6.93;;;;;;;;;;6142897;23;20683;-53
2023/11/11 13:39:54;;;;;;;11.90;6.25;;;;;;;;;;6133481;23;20022;-53
2023/11/11 13:42:43;;;;;;;14.27;5.97;;;;;;;;;;6141963;23;20104;-52
2023/11/11 13:45:35;;;;;;;14.52;6.10;;;;;;;;;;6129046;23;20026;-52
2023/11/11 13:48:21;;;;;;;12.95;6.30;;;;;;;;;;6143123;23;20028;-62
2023/11/11 13:51:15;;;;;;;13.40;6.32;;;;;;;;;;6143023;23;20482;-64
2023/11/11 13:54:02;;;;;;;11.38;6.13;;;;;;;;;;6138941;23;20048;-62
2023/11/11 13:56:57;;;;;;;13.68;7.00;;;;;;;;;;6141814;23;20456;-63
2023/11/11 13:59:24;;;;;;;13.35;6.55;;;;;;;;;;6143883;23;20032;-63
2023/11/11 14:02:19;;;;;;;13.95;6.90;;;;;;;;;;6140240;23;20025;-63
2023/11/11 14:04:46;;;;;;;15.82;6.47;;;;;;;;;;6140826;23;20032;-63
2023/11/11 14:07:13;;;;;;;;;;;;;;;;;;6144400;23;20029;-60
2023/11/11 14:10:08;;;;;;;17.13;6.13;;;;;;;;;;6138785;23;20554;-53
2023/11/11 14:13:02;;;;;;;17.48;7.10;;;;;;;;;;6172368;23;20128;-52
2023/11/11 14:15:59;;;;;;;14.32;7.00;;;;;;;;;;6172056;23;20725;-55
2023/11/11 14:18:27;;;;;;;13.85;7.30;;;;;;;;;;6172742;23;20020;-55
2023/11/11 14:21:20;;;;;;;15.32;6.68;;;;;;;;;;6171947;23;20071;-54
2023/11/11 14:24:08;;;;;;;14.00;6.38;;;;;;;;;;6169193;23;20526;-53
2023/11/11 14:27:02;;;;;;;21.15;7.32;;;;;;;;;;6172658;23;20028;-59
2023/11/11 14:29:48;;;;;;;12.23;6.28;;;;;;;;;;6171941;23;20024;-62
2023/11/11 14:32:43;;;;;;;14.25;6.95;;;;;;;;;;6173905;23;20084;-63
2023/11/11 14:35:16;;;;;;;17.02;7.05;;;;;;;;;;6170764;23;20132;-62
2023/11/11 14:37:54;;;;;;;18.98;8.48;;;;;;;;;;6169417;23;20025;-62
2023/11/11 14:40:37;;;;;;;18.35;9.65;;;;;;;;;;6150434;23;20557;-63
2023/11/11 14:43:31;;;;;;;17.25;8.43;;;;;;;;;;6167956;23;20671;-64
2023/11/11 14:46:22;;;;;;;18.35;9.07;;;;;;;;;;6170621;23;20530;-63
2023/11/11 14:49:15;;;;;;;17.55;8.73;;;;;;;;;;6173834;23;20025;-60
2023/11/11 14:52:02;;;;;;;14.98;8.27;;;;;;;;;;6169890;23;20025;-60
2023/11/11 14:54:56;;;;;;;17.73;9.30;;;;;;;;;;6172849;23;20163;-60
2023/11/11 14:57:24;;;;;;;17.75;8.93;;;;;;;;;;6170824;23;20059;-60
2023/11/11 15:00:24;;;;;;;15.32;8.98;;;;;;;;;;6169686;23;20591;-59
2023/11/11 15:03:12;;;;;;;19.55;9.50;;;;;;;;;;6163337;23;20036;-60
2023/11/11 15:06:04;;;;;;;19.90;10.57;;;;;;;;;;6165918;23;20025;-55
2023/11/11 15:08:34;;;;;;;20.17;9.65;;;;;;;;;;6167600;23;20927;-53
2023/11/11 15:11:20;;;;;;;20.80;9.63;;;;;;;;;;6166020;23;20391;-56
2023/11/11 15:14:15;;;;;;;20.63;10.73;;;;;;;;;;6171290;23;20036;-55
2023/11/11 15:16:49;;;;;;;24.58;10.98;;;;;;;;;;6168052;23;20021;-54
2023/11/11 15:19:17;;;;;;;20.38;10.25;;;;;;;;;;6169678;23;20042;-56
2023/11/11 15:21:46;;;;;;;20.98;11.23;;;;;;;;;;6142893;23;20088;-65
2023/11/11 15:24:21;;;;;;;20.52;10.50;;;;;;;;;;6171452;23;20025;-62
2023/11/11 15:27:07;;;;;;;24.60;10.60;;;;;;;;;;6169836;23;20091;-63
2023/11/11 15:30:00;;;;;;;25.80;11.40;;;;;;;;;;6170780;23;20028;-63
2023/11/11 15:32:54;;;;;;;21.75;10.63;;;;;;;;;;6171022;23;20609;-62
2023/11/11 15:35:43;;;;;;;25.52;11.30;;;;;;;;;;6168496;23;20025;-62
2023/11/11 15:38:38;;;;;;;24.38;10.48;;;;;;;;;;6167580;23;21037;-58
2023/11/11 15:41:32;;;;;;;18.65;9.55;;;;;;;;;;6169927;23;20467;-62
2023/11/11 15:44:18;;;;;;;22.05;10.43;;;;;;;;;;6169309;23;20093;-62
2023/11/11 15:47:12;;;;;;;26.75;11.13;;;;;;;;;;6165805;23;20631;-62
2023/11/11 15:49:59;;;;;;;22.55;11.45;;;;;;;;;;6166607;23;20132;-61
2023/11/11 15:52:53;;;;;;;25.63;11.15;;;;;;;;;;6170432;23;20079;-63
2023/11/11 15:55:22;;;;;;;23.33;10.60;;;;;;;;;;6172440;23;20059;-63
2023/11/11 15:58:16;;;;;;;22.02;11.30;;;;;;;;;;6166568;23;20104;-55
2023/11/11 16:01:03;;;;;;;23.65;11.27;;;;;;;;;;6172457;23;20021;-62
2023/11/11 16:03:56;;;;;;;17.83;8.68;;;;;;;;;;6173177;23;20470;-62
2023/11/11 16:06:26;;;;;;;25.70;11.23;;;;;;;;;;6171411;23;20028;-62
2023/11/11 16:09:17;;;;;;;18.60;9.88;;;;;;;;;;6170441;23;20033;-62
2023/11/11 16:12:19;;;;;;;18.90;10.07;;;;;;;;;;6168779;23;20479;-62
2023/11/11 16:15:05;;;;;;;19.17;8.85;;;;;;;;;;6167908;23;20290;-62
2023/11/11 16:18:00;;;;;;;26.02;9.90;;;;;;;;;;6171473;23;20117;-65
2023/11/11 16:20:47;;;;;;;24.17;9.90;;;;;;;;;;6173476;23;20027;-62
2023/11/11 16:23:43;;;;;;;19.23;9.40;;;;;;;;;;6172395;23;20021;-63
2023/11/11 16:26:50;;;;;;;17.55;7.75;;;;;;;;;;6171516;23;20049;-63
2023/11/11 16:29:43;;;;;;;19.85;9.32;;;;;;;;;;6172143;23;20382;-64
2023/11/11 16:32:30;;;;;;;20.73;9.80;;;;;;;;;;6172348;23;20028;-63
2023/11/11 16:35:24;;;;;;;18.75;9.75;;;;;;;;;;6161420;23;20754;-62